NCAR-RAP Real-Time Weather Data

Output produced by METARs form (05 May 2016  18:04 UTC)
found at http://weather.rap.ucar.edu/surface/
 
Conditions at: KSDF observed 05 May 2016  17:56 UTC
Temperature: 12.2°C (54°F)
Dewpoint: 3.9°C (39°F) [RH = 57%]
Pressure (altimeter): 29.89 inches Hg (1012.3 mb)
[Sea-level pressure: 1012.3 mb]
Winds: from the N (10 degrees) at 13 MPH (11 knots; 5.7 m/s)
Visibility: 10 or more miles (16+ km)
Ceiling: 3700 feet AGL
Clouds: scattered clouds at 3000 feet AGL
overcast cloud deck at 3700 feet AGL
Present Weather: no significant weather observed at this time
KSDF 051756Z 01011KT 10SM SCT030 OVC037 12/04 A2989 RMK AO2 SLP123 60000 T01220039 10122 20078 51012